Latest Coastal Weather Observations for Stenhouse Bay

IDS60701

Issued at 12:35 am CDT Tuesday 25 November 2014 (issued every 10 minutes, with the page automatically refreshed every 10 minutes)

About coastal observations | Map of coastal stations | Coastal observations for SA | Marine services | Other Formats
Station Details ID: 022049 Name: STENHOUSE BAY Lat: -35.28 Lon: 136.94 Height: 42.0 m
Data from the previous 72 hours. | See also: Recent months at Stenhouse Bay
Date/Time
CDT
Temp

°C
Wind Pressure Rain
since 9am
mm
Weather Cloud Vis
km
Sea
Height
m
Swell
Dir
 
Speed
knots
Gust
knots
hPa Trend Height
m
Period
s
Dir
25/12:30am 14.7 SSW 14 19 1020.0 - 0.0 - - - - - - -
25/12:00am 14.8 SSW 13 18 1020.2 - 0.0 - - - - - - -
 
Date/Time
CDT
Temp

°C
Wind Pressure Rain
since 9am
mm
Weather Cloud Vis
km
Sea
Height
m
Swell
Dir
 
Speed
knots
Gust
knots
hPa Trend Height
m
Period
s
Dir
24/11:30pm 14.8 SSW 11 16 1020.3 - 0.0 - - - - - - -
24/11:00pm 15.2 SSW 11 19 1020.1 - 0.0 - - - - - - -
24/10:30pm 15.1 SSW 12 19 1020.1 - 0.0 - - - - - - -
24/10:00pm 15.2 SW 13 19 1019.9 - 0.0 - - - - - - -
24/09:30pm 15.0 SW 14 18 1019.6 - 0.0 - - - - - - -
24/09:00pm 15.1 SW 14 19 1019.3 - 0.0 - - - - - - -
24/08:30pm 15.2 SW 13 20 1018.9 - 0.0 - - - - - - -
24/08:00pm 15.2 SW 15 23 1018.3 - 0.0 - - - - - - -
24/07:30pm 15.8 SW 17 22 1018.0 - 0.0 - - - - - - -
24/07:00pm 16.2 SW 16 21 1017.7 - 0.0 - - - - - - -
24/06:30pm 16.6 SW 17 25 1017.2 - 0.0 - - - - - - -
24/06:00pm 16.9 SW 18 24 1017.1 - 0.0 - - - - - - -
24/05:30pm 17.4 SW 17 23 1017.0 - 0.0 - - - - - - -
24/05:00pm 18.0 SW 19 25 1016.8 - 0.0 - - - - - - -
24/04:30pm 18.1 SW 18 23 1016.6 - 0.0 - - - - - - -
24/04:00pm 17.8 SW 16 22 1016.4 - 0.0 - - - - - - -
24/03:30pm 18.6 SW 17 22 1016.1 - 0.0 - - - - - - -
24/03:00pm 19.0 SW 17 23 1016.1 - 0.0 - - - - - - -
24/02:30pm 19.0 SW 18 24 1016.0 - 0.0 - - - - - - -
24/02:00pm 18.3 SW 17 24 1016.0 - 0.0 - - - - - - -
24/01:30pm 19.0 SW 15 22 1015.9 - 0.0 - - - - - - -
24/01:00pm 18.9 SW 17 24 1015.8 - 0.0 - - - - - - -
24/12:30pm 18.6 SW 15 23 1015.5 - 0.0 - - - - - - -
24/12:00pm 18.9 SW 17 23 1015.4 - 0.0 - - - - - - -
24/11:30am 19.1 SW 16 22 1015.2 - 0.0 - - - - - - -
24/11:00am 18.6 SW 13 20 1014.9 - 0.0 - - - - - - -
24/10:30am 17.9 SW 16 21 1014.6 - 0.0 - - - - - - -
24/10:00am 18.5 SW 14 21 1014.2 - 0.0 - - - - - - -
24/09:30am 17.9 SW 17 23 1013.8 - 0.0 - - - - - - -
24/09:00am 18.0 SW 14 19 1013.5 - 0.0 - - - - - - -
24/08:30am 17.1 SW 15 21 1013.1 - 0.0 - - - - - - -
24/08:00am 17.6 SW 14 18 1012.6 - 0.0 - - - - - - -
24/07:30am 17.3 SW 11 18 1011.9 - 0.0 - - - - - - -
24/07:00am 17.4 SW 10 14 1011.6 - 0.0 - - - - - - -
24/06:30am 16.4 SSW 9 12 1011.2 - 0.0 - - - - - - -
24/06:00am 16.6 SSW 11 16 1010.7 - 0.0 - - - - - - -
24/05:30am 16.6 SSW 10 14 1010.5 - 0.0 - - - - - - -
24/05:00am 16.5 S 11 14 1010.0 - 0.0 - - - - - - -
24/04:30am 16.6 S 14 16 1009.6 - 0.0 - - - - - - -
24/04:00am 16.6 S 13 16 1009.4 - 0.0 - - - - - - -
24/03:30am 16.5 S 11 14 1009.2 - 0.0 - - - - - - -
24/03:00am 16.6 S 14 17 1009.1 - 0.0 - - - - - - -
24/02:30am 16.7 S 14 18 1009.1 - 0.0 - - - - - - -
24/02:00am 16.6 S 12 14 1009.4 - 0.0 - - - - - - -
24/01:30am 16.6 S 13 16 1009.5 - 0.0 - - - - - - -
24/01:00am 16.8 S 13 18 1009.7 - 0.0 - - - - - - -
24/12:30am 16.9 S 14 18 1009.4 - 0.0 - - - - - - -
24/12:00am 17.1 SSE 13 16 1009.5 - 0.0 - - - - - - -
 
Date/Time
CDT
Temp

°C
Wind Pressure Rain
since 9am
mm
Weather Cloud Vis
km
Sea
Height
m
Swell
Dir
 
Speed
knots
Gust
knots
hPa Trend Height
m
Period
s
Dir
23/11:30pm 17.2 SSE 14 19 1010.0 - 0.0 - - - - - - -
23/11:00pm 17.3 SSE 14 18 1009.8 - 0.0 - - - - - - -
23/10:30pm 17.4 SSE 15 19 1009.9 - 0.0 - - - - - - -
23/10:00pm 17.6 SSE 15 18 1009.8 - 0.0 - - - - - - -
23/09:30pm 17.7 SSE 14 19 1009.4 - 0.0 - - - - - - -
23/09:00pm 18.1 S 9 11 1009.7 - 0.0 - - - - - - -
23/08:30pm 17.7 S 8 11 1009.9 - 0.0 - - - - - - -
23/08:00pm 18.0 SSW 6 9 1009.9 - 0.0 - - - - - - -
23/07:30pm 19.1 S 5 6 1009.8 - 0.0 - - - - - - -
23/07:00pm 19.9 S 6 7 1009.6 - 0.0 - - - - - - -
23/06:30pm 20.3 S 6 9 1009.3 - 0.0 - - - - - - -
23/06:00pm 20.3 S 8 10 1009.3 - 0.0 - - - - - - -
23/05:30pm 20.3 SSE 8 9 1009.7 - 0.0 - - - - - - -
23/05:00pm 19.8 SSE 7 8 1010.1 - 0.0 - - - - - - -
23/04:30pm 19.5 S 6 7 1010.2 - 0.0 - - - - - - -
23/04:00pm 20.7 SSW 5 7 1010.7 - 0.0 - - - - - - -
23/03:30pm 19.5 E 7 9 1011.1 - 0.0 - - - - - - -
23/03:00pm 19.8 ENE 6 7 1011.7 - 0.0 - - - - - - -
23/02:30pm 20.0 E 5 7 1011.8 - 0.0 - - - - - - -
23/02:00pm 20.0 S 9 11 1011.3 - 0.0 - - - - - - -
23/01:30pm 20.9 S 9 12 1011.5 - 0.0 - - - - - - -
23/01:00pm 21.7 S 9 13 1011.8 - 0.0 - - - - - - -
23/12:30pm 20.0 SSW 9 12 1012.6 - 0.0 - - - - - - -
23/12:00pm 19.7 SSW 8 11 1013.2 - 0.0 - - - - - - -
23/11:30am 20.0 SSW 8 11 1013.2 - 0.0 - - - - - - -
23/11:00am 19.6 S 6 8 1012.9 - 0.0 - - - - - - -
23/10:30am 18.7 SSE 5 7 1013.0 - 0.0 - - - - - - -
23/10:00am 19.2 E 6 7 1012.5 - 0.0 - - - - - - -
23/09:30am 18.9 E 5 6 1012.5 - 0.0 - - - - - - -
23/09:00am 18.0 E 4 6 1012.5 - 0.0 - - - - - - -
23/08:30am 17.4 ENE 2 4 1012.3 - 0.0 - - - - - - -
23/08:00am 16.8 NE 2 3 1012.2 - 0.0 - - - - - - -
23/07:30am 14.9 NNW 1 2 1012.1 - 0.0 - - - - - - -
23/07:00am 12.7 NNW 2 4 1012.0 - 0.0 - - - - - - -
23/06:30am 12.0 NNW 2 3 1012.0 - 0.0 - - - - - - -
23/06:00am 12.2 NW 2 2 1011.8 - 0.0 - - - - - - -
23/05:30am 11.7 N 2 4 1011.6 - 0.0 - - - - - - -
23/05:00am 11.5 NNW 3 4 1011.6 - 0.0 - - - - - - -
23/04:30am 13.0 NNW 1 2 1011.8 - 0.0 - - - - - - -
23/04:00am 13.2 NW 2 2 1011.9 - 0.0 - - - - - - -
23/03:30am 13.1 W 3 3 1011.9 - 0.0 - - - - - - -
23/03:00am 13.1 W 4 4 1011.9 - 0.0 - - - - - - -
23/02:30am 13.6 WSW 5 7 1011.8 - 0.0 - - - - - - -
23/02:00am 13.4 W 4 4 1012.2 - 0.0 - - - - - - -
23/01:30am 14.1 WSW 3 4 1012.3 - 0.0 - - - - - - -
23/01:00am 14.7 S 1 3 1012.5 - 0.0 - - - - - - -
23/12:30am 15.2 S 4 5 1012.8 - 0.0 - - - - - - -
23/12:00am 15.3 S 3 5 1013.0 - 0.0 - - - - - - -
 
Date/Time
CDT
Temp

°C
Wind Pressure Rain
since 9am
mm
Weather Cloud Vis
km
Sea
Height
m
Swell
Dir
 
Speed
knots
Gust
knots
hPa Trend Height
m
Period
s
Dir
22/11:30pm 15.6 S 5 6 1012.9 - 0.0 - - - - - - -
22/11:00pm 16.0 S 9 12 1012.8 - 0.0 - - - - - - -
22/10:30pm 16.1 SSW 7 9 1012.8 - 0.0 - - - - - - -
22/10:00pm 16.3 SSW 9 13 1012.6 - 0.0 - - - - - - -
22/09:30pm 16.3 SSW 9 14 1012.2 - 0.0 - - - - - - -
22/09:00pm 16.3 SW 10 16 1011.8 - 0.0 - - - - - - -
22/08:30pm 16.4 SW 11 16 1011.4 - 0.0 - - - - - - -
22/08:00pm 16.7 SW 11 17 1010.8 - 0.0 - - - - - - -
22/07:30pm 17.3 SW 11 17 1010.2 - 0.0 - - - - - - -
22/07:00pm 18.0 SW 11 16 1009.7 - 0.0 - - - - - - -
22/06:30pm 18.3 SW 15 20 1009.4 - 0.0 - - - - - - -
22/06:00pm 19.0 SW 11 14 1009.0 - 0.0 - - - - - - -
22/05:30pm 19.1 SW 15 19 1008.6 - 0.0 - - - - - - -
22/05:00pm 19.1 SW 17 20 1008.4 - 0.0 - - - - - - -
22/04:30pm 19.4 SW 15 20 1008.3 - 0.0 - - - - - - -
22/04:00pm 19.6 SW 16 22 1008.1 - 0.0 - - - - - - -
22/03:30pm 19.3 SW 16 20 1008.1 - 0.0 - - - - - - -
22/03:00pm 21.2 SW 14 18 1007.9 - 0.0 - - - - - - -
22/02:30pm 21.6 SW 12 16 1007.6 - 0.0 - - - - - - -
22/02:00pm 22.3 SW 12 16 1007.9 - 0.0 - - - - - - -
22/01:30pm 21.8 SW 9 13 1007.8 - 0.0 - - - - - - -
22/01:00pm 21.3 SW 9 12 1007.4 - 0.0 - - - - - - -
22/12:30pm 22.9 WSW 9 13 1007.4 - 0.0 - - - - - - -
22/12:00pm 22.4 WSW 12 17 1007.0 - 0.0 - - - - - - -
22/11:30am 24.5 W 9 14 1006.8 - 0.0 - - - - - - -
22/11:00am 23.7 WNW 13 18 1007.1 - 0.0 - - - - - - -
22/10:30am 26.0 NW 11 15 1006.7 - 0.0 - - - - - - -
22/10:00am 24.4 NW 12 15 1006.6 - 0.0 - - - - - - -
22/09:30am 24.6 NNW 9 12 1006.4 - 0.0 - - - - - - -
22/09:00am 21.5 NNW 8 10 1006.5 - 0.8 - - - - - - -
22/08:30am 20.8 N 9 12 1006.2 - 0.8 - - - - - - -
22/08:00am 19.0 N 6 9 1005.9 - 0.8 - - - - - - -
22/07:30am 17.7 N 6 7 1006.1 - 0.8 - - - - - - -
22/07:00am 16.5 N 10 13 1006.5 - 0.8 - - - - - - -
22/06:30am 17.7 ENE 1 2 1006.8 - 0.2 - - - - - - -
22/06:00am 18.2 SSE 4 6 1006.1 - 0.0 - - - - - - -
22/05:47am 18.4 SSE 5 8 1007.3 - 0.0 - - - - - - -
22/05:30am 18.4 S 5 7 1005.2 - 0.0 - - - - - - -
22/05:00am 18.3 SSE 4 5 1005.2 - 0.0 - - - - - - -
22/04:30am 18.8 SSW 5 7 1005.6 - 0.0 - - - - - - -
22/04:00am 18.3 S 8 10 1005.4 - 0.0 - - - - - - -
22/03:30am 17.8 SSW 7 9 1005.7 - 0.0 - - - - - - -
22/03:00am 18.1 S 7 10 1005.8 - 0.0 - - - - - - -
22/02:30am 19.7 SW 12 16 1005.3 - 0.0 - - - - - - -
22/02:00am 20.5 N 7 10 1004.8 - 0.0 - - - - - - -
22/01:30am 19.2 N 8 10 1004.9 - 0.0 - - - - - - -
22/01:00am 18.3 NNE 9 12 1004.8 - 0.0 - - - - - - -

Other Formats:

Comma delimited format used in spreadsheet applications
http://www.bom.gov.au/fwo/IDS60701/IDS60701.95806.axf

JavaScript Object Notation format (JSON) in row-major order
http://www.bom.gov.au/fwo/IDS60701/IDS60701.95806.json